sensor_id;sensor_type;location;lat;lon;timestamp;pressure;altitude;pressure_sealevel;temperature;humidity
55032;BME280;40928;51.076;7.950;2023-02-20T00:00:50;97975.72;;;3.43;100.00
55032;BME280;40928;51.076;7.950;2023-02-20T00:03:16;97962.34;;;3.44;100.00
55032;BME280;40928;51.076;7.950;2023-02-20T00:05:41;97960.25;;;3.31;100.00
55032;BME280;40928;51.076;7.950;2023-02-20T00:08:07;97965.03;;;3.36;100.00
55032;BME280;40928;51.076;7.950;2023-02-20T00:10:33;97960.06;;;3.33;100.00
55032;BME280;40928;51.076;7.950;2023-02-20T00:12:58;97958.44;;;3.32;100.00
55032;BME280;40928;51.076;7.950;2023-02-20T00:15:24;97953.66;;;3.27;100.00
55032;BME280;40928;51.076;7.950;2023-02-20T00:17:50;97946.06;;;3.32;100.00
55032;BME280;40928;51.076;7.950;2023-02-20T00:20:21;97945.78;;;3.19;100.00
55032;BME280;40928;51.076;7.950;2023-02-20T00:22:48;97950.69;;;3.22;100.00
55032;BME280;40928;51.076;7.950;2023-02-20T00:25:16;97938.34;;;3.14;100.00
55032;BME280;40928;51.076;7.950;2023-02-20T00:27:42;97948.91;;;3.14;100.00
55032;BME280;40928;51.076;7.950;2023-02-20T00:30:14;97951.53;;;3.23;100.00
55032;BME280;40928;51.076;7.950;2023-02-20T00:32:40;97950.72;;;3.14;100.00
55032;BME280;40928;51.076;7.950;2023-02-20T00:35:05;97946.09;;;3.16;100.00
55032;BME280;40928;51.076;7.950;2023-02-20T00:37:33;97951.38;;;3.16;100.00
55032;BME280;40928;51.076;7.950;2023-02-20T00:39:59;97963.22;;;3.20;100.00
55032;BME280;40928;51.076;7.950;2023-02-20T00:42:24;97949.88;;;3.22;100.00
55032;BME280;40928;51.076;7.950;2023-02-20T00:44:50;97948.56;;;3.26;100.00
55032;BME280;40928;51.076;7.950;2023-02-20T00:47:15;97949.56;;;3.25;100.00
55032;BME280;40928;51.076;7.950;2023-02-20T00:49:44;97939.00;;;3.25;100.00
55032;BME280;40928;51.076;7.950;2023-02-20T00:52:12;97946.56;;;3.28;100.00
55032;BME280;40928;51.076;7.950;2023-02-20T00:54:38;97947.06;;;3.31;100.00
55032;BME280;40928;51.076;7.950;2023-02-20T00:57:03;97931.22;;;3.31;100.00
55032;BME280;40928;51.076;7.950;2023-02-20T00:59:29;97923.13;;;3.33;100.00
55032;BME280;40928;51.076;7.950;2023-02-20T01:01:54;97925.41;;;3.36;100.00
55032;BME280;40928;51.076;7.950;2023-02-20T01:04:20;97925.75;;;3.41;100.00
55032;BME280;40928;51.076;7.950;2023-02-20T01:06:46;97923.09;;;3.41;100.00
55032;BME280;40928;51.076;7.950;2023-02-20T01:09:12;97919.09;;;3.45;100.00
55032;BME280;40928;51.076;7.950;2023-02-20T01:11:43;97924.06;;;3.48;100.00
55032;BME280;40928;51.076;7.950;2023-02-20T01:14:11;97924.72;;;3.50;100.00
55032;BME280;40928;51.076;7.950;2023-02-20T01:16:43;97925.88;;;3.48;100.00
55032;BME280;40928;51.076;7.950;2023-02-20T01:19:09;97925.53;;;3.51;100.00
55032;BME280;40928;51.076;7.950;2023-02-20T01:21:34;97916.13;;;3.57;100.00
55032;BME280;40928;51.076;7.950;2023-02-20T01:24:00;97918.75;;;3.57;100.00
55032;BME280;40928;51.076;7.950;2023-02-20T01:26:25;97919.88;;;3.62;100.00
55032;BME280;40928;51.076;7.950;2023-02-20T01:28:50;97919.75;;;3.56;100.00
55032;BME280;40928;51.076;7.950;2023-02-20T01:31:17;97914.47;;;3.56;100.00
55032;BME280;40928;51.076;7.950;2023-02-20T01:33:43;97926.16;;;3.61;100.00
55032;BME280;40928;51.076;7.950;2023-02-20T01:36:10;97918.56;;;3.58;100.00
55032;BME280;40928;51.076;7.950;2023-02-20T01:38:36;97907.66;;;3.61;100.00
55032;BME280;40928;51.076;7.950;2023-02-20T01:41:02;97910.66;;;3.58;100.00
55032;BME280;40928;51.076;7.950;2023-02-20T01:43:27;97902.53;;;3.60;100.00
55032;BME280;40928;51.076;7.950;2023-02-20T01:45:53;97901.59;;;3.53;100.00
55032;BME280;40928;51.076;7.950;2023-02-20T01:48:24;97891.47;;;3.64;100.00
55032;BME280;40928;51.076;7.950;2023-02-20T01:50:57;97889.97;;;3.70;100.00
55032;BME280;40928;51.076;7.950;2023-02-20T01:53:26;97885.69;;;3.69;100.00
55032;BME280;40928;51.076;7.950;2023-02-20T01:56:12;97883.25;;;3.59;100.00
55032;BME280;40928;51.076;7.950;2023-02-20T01:58:47;97876.78;;;3.62;100.00
55032;BME280;40928;51.076;7.950;2023-02-20T02:01:14;97885.88;;;3.59;100.00
55032;BME280;40928;51.076;7.950;2023-02-20T02:03:42;97894.59;;;3.68;100.00
55032;BME280;40928;51.076;7.950;2023-02-20T02:06:12;97888.31;;;3.69;100.00
55032;BME280;40928;51.076;7.950;2023-02-20T02:08:40;97885.97;;;3.74;100.00
55032;BME280;40928;51.076;7.950;2023-02-20T02:11:22;97876.56;;;3.72;100.00
55032;BME280;40928;51.076;7.950;2023-02-20T02:13:53;97874.25;;;3.77;100.00
55032;BME280;40928;51.076;7.950;2023-02-20T02:22:27;97859.50;;;3.83;100.00
55032;BME280;40928;51.076;7.950;2023-02-20T02:36:46;97871.41;;;3.78;100.00
55032;BME280;40928;51.076;7.950;2023-02-20T02:42:21;97848.50;;;3.71;100.00
55032;BME280;40928;51.076;7.950;2023-02-20T02:45:00;97858.06;;;3.72;100.00
55032;BME280;40928;51.076;7.950;2023-02-20T02:47:34;97855.22;;;3.81;100.00
55032;BME280;40928;51.076;7.950;2023-02-20T02:50:11;97856.41;;;3.79;100.00
55032;BME280;40928;51.076;7.950;2023-02-20T02:52:39;97838.25;;;3.76;100.00
55032;BME280;40928;51.076;7.950;2023-02-20T02:55:34;97838.19;;;3.84;100.00
55032;BME280;40928;51.076;7.950;2023-02-20T02:58:00;97837.03;;;3.87;100.00
55032;BME280;40928;51.076;7.950;2023-02-20T03:00:36;97822.31;;;3.84;100.00
55032;BME280;40928;51.076;7.950;2023-02-20T03:03:09;97819.53;;;3.86;100.00
55032;BME280;40928;51.076;7.950;2023-02-20T03:05:42;97811.94;;;3.83;100.00
55032;BME280;40928;51.076;7.950;2023-02-20T03:08:26;97803.03;;;3.84;100.00
55032;BME280;40928;51.076;7.950;2023-02-20T03:11:03;97809.31;;;3.83;100.00
55032;BME280;40928;51.076;7.950;2023-02-20T03:13:35;97791.81;;;3.81;100.00
55032;BME280;40928;51.076;7.950;2023-02-20T03:16:31;97796.44;;;3.79;100.00
55032;BME280;40928;51.076;7.950;2023-02-20T03:19:00;97798.78;;;3.74;100.00
55032;BME280;40928;51.076;7.950;2023-02-20T03:21:29;97803.06;;;3.75;100.00
55032;BME280;40928;51.076;7.950;2023-02-20T03:23:59;97812.38;;;3.71;100.00
55032;BME280;40928;51.076;7.950;2023-02-20T03:26:31;97809.75;;;3.63;100.00
55032;BME280;40928;51.076;7.950;2023-02-20T03:29:13;97821.97;;;3.64;100.00
55032;BME280;40928;51.076;7.950;2023-02-20T03:31:59;97830.53;;;3.66;100.00
55032;BME280;40928;51.076;7.950;2023-02-20T03:34:45;97828.09;;;3.64;100.00
55032;BME280;40928;51.076;7.950;2023-02-20T03:37:33;97807.66;;;3.58;100.00
55032;BME280;40928;51.076;7.950;2023-02-20T03:40:20;97814.22;;;3.62;100.00
55032;BME280;40928;51.076;7.950;2023-02-20T03:43:19;97811.59;;;3.62;100.00
55032;BME280;40928;51.076;7.950;2023-02-20T03:46:02;97796.28;;;3.58;100.00
55032;BME280;40928;51.076;7.950;2023-02-20T03:49:08;97807.84;;;3.57;100.00
55032;BME280;40928;51.076;7.950;2023-02-20T03:51:39;97799.94;;;3.48;100.00
55032;BME280;40928;51.076;7.950;2023-02-20T03:54:16;97798.94;;;3.49;100.00
55032;BME280;40928;51.076;7.950;2023-02-20T03:56:49;97800.25;;;3.54;100.00
55032;BME280;40928;51.076;7.950;2023-02-20T03:59:25;97802.06;;;3.53;100.00
55032;BME280;40928;51.076;7.950;2023-02-20T04:01:56;97798.16;;;3.49;100.00
55032;BME280;40928;51.076;7.950;2023-02-20T04:04:31;97794.97;;;3.54;100.00
55032;BME280;40928;51.076;7.950;2023-02-20T04:06:59;97796.66;;;3.46;100.00
55032;BME280;40928;51.076;7.950;2023-02-20T04:09:29;97807.06;;;3.48;100.00
55032;BME280;40928;51.076;7.950;2023-02-20T04:12:02;97801.94;;;3.46;100.00
55032;BME280;40928;51.076;7.950;2023-02-20T04:14:32;97809.19;;;3.44;100.00
55032;BME280;40928;51.076;7.950;2023-02-20T04:17:02;97793.72;;;3.41;100.00
55032;BME280;40928;51.076;7.950;2023-02-20T04:19:32;97794.53;;;3.42;100.00
55032;BME280;40928;51.076;7.950;2023-02-20T04:22:01;97792.25;;;3.39;100.00
55032;BME280;40928;51.076;7.950;2023-02-20T04:24:35;97793.88;;;3.40;100.00
55032;BME280;40928;51.076;7.950;2023-02-20T04:27:02;97802.66;;;3.40;100.00
55032;BME280;40928;51.076;7.950;2023-02-20T04:29:28;97810.72;;;3.39;100.00
55032;BME280;40928;51.076;7.950;2023-02-20T04:31:55;97806.81;;;3.34;100.00
55032;BME280;40928;51.076;7.950;2023-02-20T04:34:23;97807.16;;;3.31;100.00
55032;BME280;40928;51.076;7.950;2023-02-20T04:37:06;97812.56;;;3.38;100.00
55032;BME280;40928;51.076;7.950;2023-02-20T04:39:32;97803.78;;;3.38;100.00
55032;BME280;40928;51.076;7.950;2023-02-20T04:41:58;97808.59;;;3.34;100.00
55032;BME280;40928;51.076;7.950;2023-02-20T04:44:24;97806.81;;;3.34;100.00
55032;BME280;40928;51.076;7.950;2023-02-20T04:47:00;97810.72;;;3.39;100.00
55032;BME280;40928;51.076;7.950;2023-02-20T04:49:27;97799.69;;;3.35;100.00
55032;BME280;40928;51.076;7.950;2023-02-20T04:51:54;97799.03;;;3.33;100.00
55032;BME280;40928;51.076;7.950;2023-02-20T04:54:21;97802.34;;;3.35;100.00
55032;BME280;40928;51.076;7.950;2023-02-20T04:56:47;97802.34;;;3.35;100.00
55032;BME280;40928;51.076;7.950;2023-02-20T04:59:13;97792.44;;;3.37;100.00
55032;BME280;40928;51.076;7.950;2023-02-20T05:01:39;97791.25;;;3.40;100.00
55032;BME280;40928;51.076;7.950;2023-02-20T05:04:07;97778.22;;;3.38;100.00
55032;BME280;40928;51.076;7.950;2023-02-20T05:06:32;97779.22;;;3.37;100.00
55032;BME280;40928;51.076;7.950;2023-02-20T05:08:58;97777.53;;;3.44;100.00
55032;BME280;40928;51.076;7.950;2023-02-20T05:11:26;97767.31;;;3.41;100.00
55032;BME280;40928;51.076;7.950;2023-02-20T05:13:58;97778.50;;;3.43;100.00
55032;BME280;40928;51.076;7.950;2023-02-20T05:16:23;97764.19;;;3.38;100.00
55032;BME280;40928;51.076;7.950;2023-02-20T05:18:49;97763.72;;;3.34;100.00
55032;BME280;40928;51.076;7.950;2023-02-20T05:21:14;97759.09;;;3.36;100.00
55032;BME280;40928;51.076;7.950;2023-02-20T05:23:58;97758.44;;;3.34;100.00
55032;BME280;40928;51.076;7.950;2023-02-20T05:26:24;97755.81;;;3.34;100.00
55032;BME280;40928;51.076;7.950;2023-02-20T05:28:49;97759.09;;;3.36;100.00
55032;BME280;40928;51.076;7.950;2023-02-20T05:31:15;97751.38;;;3.34;100.00
55032;BME280;40928;51.076;7.950;2023-02-20T05:33:40;97747.06;;;3.33;100.00
55032;BME280;40928;51.076;7.950;2023-02-20T05:36:06;97745.06;;;3.35;100.00
55032;BME280;40928;51.076;7.950;2023-02-20T05:38:32;97740.28;;;3.39;100.00
55032;BME280;40928;51.076;7.950;2023-02-20T05:40:57;97739.75;;;3.44;100.00
55032;BME280;40928;51.076;7.950;2023-02-20T05:43:23;97732.50;;;3.38;100.00
55032;BME280;40928;51.076;7.950;2023-02-20T05:45:48;97732.47;;;3.46;100.00
55032;BME280;40928;51.076;7.950;2023-02-20T05:48:14;97738.63;;;3.38;100.00
55032;BME280;40928;51.076;7.950;2023-02-20T05:50:40;97725.97;;;3.33;100.00
55032;BME280;40928;51.076;7.950;2023-02-20T05:53:06;97730.41;;;3.33;100.00
55032;BME280;40928;51.076;7.950;2023-02-20T05:55:33;97737.50;;;3.32;100.00
55032;BME280;40928;51.076;7.950;2023-02-20T05:57:58;97729.94;;;3.29;100.00
55032;BME280;40928;51.076;7.950;2023-02-20T06:00:24;97727.94;;;3.31;100.00
55032;BME280;40928;51.076;7.950;2023-02-20T06:02:49;97732.72;;;3.28;100.00
55032;BME280;40928;51.076;7.950;2023-02-20T06:05:15;97724.44;;;3.39;100.00
55032;BME280;40928;51.076;7.950;2023-02-20T06:07:45;97707.63;;;3.32;100.00
55032;BME280;40928;51.076;7.950;2023-02-20T06:10:11;97712.75;;;3.33;100.00
55032;BME280;40928;51.076;7.950;2023-02-20T06:12:37;97713.75;;;3.32;100.00
55032;BME280;40928;51.076;7.950;2023-02-20T06:15:03;97714.88;;;3.38;100.00
55032;BME280;40928;51.076;7.950;2023-02-20T06:17:31;97710.63;;;3.29;100.00
55032;BME280;40928;51.076;7.950;2023-02-20T06:19:56;97707.38;;;3.27;100.00
55032;BME280;40928;51.076;7.950;2023-02-20T06:22:22;97700.91;;;3.29;100.00
55032;BME280;40928;51.076;7.950;2023-02-20T06:24:47;97701.03;;;3.36;100.00
55032;BME280;40928;51.076;7.950;2023-02-20T06:27:14;97709.28;;;3.33;100.00
55032;BME280;40928;51.076;7.950;2023-02-20T06:29:40;97702.88;;;3.27;100.00
55032;BME280;40928;51.076;7.950;2023-02-20T06:32:05;97707.19;;;3.28;100.00
55032;BME280;40928;51.076;7.950;2023-02-20T06:34:31;97708.75;;;3.38;100.00
55032;BME280;40928;51.076;7.950;2023-02-20T06:36:59;97709.47;;;3.31;100.00
55032;BME280;40928;51.076;7.950;2023-02-20T06:39:28;97691.66;;;3.33;100.00
55032;BME280;40928;51.076;7.950;2023-02-20T06:41:54;97691.00;;;3.31;100.00
55032;BME280;40928;51.076;7.950;2023-02-20T06:44:19;97705.41;;;3.44;100.00
55032;BME280;40928;51.076;7.950;2023-02-20T06:46:45;97705.47;;;3.35;100.00
55032;BME280;40928;51.076;7.950;2023-02-20T06:49:11;97706.84;;;3.31;100.00
55032;BME280;40928;51.076;7.950;2023-02-20T06:51:37;97708.63;;;3.31;100.00
55032;BME280;40928;51.076;7.950;2023-02-20T06:54:05;97701.91;;;3.28;100.00
55032;BME280;40928;51.076;7.950;2023-02-20T06:56:33;97701.94;;;3.20;100.00
55032;BME280;40928;51.076;7.950;2023-02-20T06:58:59;97708.84;;;3.21;100.00
55032;BME280;40928;51.076;7.950;2023-02-20T07:01:29;97705.34;;;3.29;100.00
55032;BME280;40928;51.076;7.950;2023-02-20T07:03:56;97699.59;;;3.25;100.00
55032;BME280;40928;51.076;7.950;2023-02-20T07:06:23;97708.22;;;3.19;100.00
55032;BME280;40928;51.076;7.950;2023-02-20T07:08:49;97706.06;;;3.23;100.00
55032;BME280;40928;51.076;7.950;2023-02-20T07:11:16;97702.78;;;3.20;100.00
55032;BME280;40928;51.076;7.950;2023-02-20T07:13:42;97703.88;;;3.26;100.00
55032;BME280;40928;51.076;7.950;2023-02-20T07:16:07;97707.75;;;3.15;100.00
55032;BME280;40928;51.076;7.950;2023-02-20T07:18:33;97707.09;;;3.13;100.00
55032;BME280;40928;51.076;7.950;2023-02-20T07:20:58;97703.31;;;3.16;100.00
55032;BME280;40928;51.076;7.950;2023-02-20T07:23:24;97698.66;;;3.18;100.00
55032;BME280;40928;51.076;7.950;2023-02-20T07:25:50;97700.44;;;3.26;100.00
55032;BME280;40928;51.076;7.950;2023-02-20T07:28:17;97700.94;;;3.21;100.00
55032;BME280;40928;51.076;7.950;2023-02-20T07:30:43;97707.06;;;3.22;100.00
55032;BME280;40928;51.076;7.950;2023-02-20T07:33:12;97715.63;;;3.24;100.00
55032;BME280;40928;51.076;7.950;2023-02-20T07:35:38;97710.94;;;3.34;100.00
55032;BME280;40928;51.076;7.950;2023-02-20T07:38:05;97708.28;;;3.34;100.00
55032;BME280;40928;51.076;7.950;2023-02-20T07:40:31;97706.41;;;3.43;100.00
55032;BME280;40928;51.076;7.950;2023-02-20T07:42:57;97706.22;;;3.44;100.00
55032;BME280;40928;51.076;7.950;2023-02-20T07:45:23;97699.44;;;3.50;100.00
55032;BME280;40928;51.076;7.950;2023-02-20T07:47:49;97704.22;;;3.46;100.00
55032;BME280;40928;51.076;7.950;2023-02-20T07:50:16;97703.88;;;3.49;100.00
55032;BME280;40928;51.076;7.950;2023-02-20T07:52:44;97704.34;;;3.53;100.00
55032;BME280;40928;51.076;7.950;2023-02-20T07:55:15;97701.91;;;3.52;100.00
55032;BME280;40928;51.076;7.950;2023-02-20T07:57:45;97693.91;;;3.60;100.00
55032;BME280;40928;51.076;7.950;2023-02-20T08:00:15;97706.69;;;3.71;100.00
55032;BME280;40928;51.076;7.950;2023-02-20T08:02:44;97707.59;;;3.63;100.00
55032;BME280;40928;51.076;7.950;2023-02-20T08:05:11;97706.09;;;3.61;100.00
55032;BME280;40928;51.076;7.950;2023-02-20T08:07:56;97700.59;;;3.47;100.00
55032;BME280;40928;51.076;7.950;2023-02-20T08:10:25;97702.25;;;3.48;100.00
55032;BME280;40928;51.076;7.950;2023-02-20T08:12:58;97709.13;;;3.58;100.00
55032;BME280;40928;51.076;7.950;2023-02-20T08:15:24;97721.16;;;3.60;100.00
55032;BME280;40928;51.076;7.950;2023-02-20T08:17:53;97713.97;;;3.69;100.00
55032;BME280;40928;51.076;7.950;2023-02-20T08:20:22;97718.44;;;3.69;100.00
55032;BME280;40928;51.076;7.950;2023-02-20T08:22:49;97722.06;;;3.68;100.00
55032;BME280;40928;51.076;7.950;2023-02-20T08:25:15;97717.72;;;3.75;100.00
55032;BME280;40928;51.076;7.950;2023-02-20T08:27:48;97724.31;;;3.94;100.00
55032;BME280;40928;51.076;7.950;2023-02-20T08:30:37;97714.91;;;4.15;100.00
55032;BME280;40928;51.076;7.950;2023-02-20T08:33:05;97718.53;;;4.29;100.00
55032;BME280;40928;51.076;7.950;2023-02-20T08:35:34;97712.91;;;4.47;100.00
55032;BME280;40928;51.076;7.950;2023-02-20T08:38:05;97709.25;;;4.48;100.00
55032;BME280;40928;51.076;7.950;2023-02-20T08:40:35;97708.69;;;4.67;100.00
55032;BME280;40928;51.076;7.950;2023-02-20T08:43:00;97707.03;;;4.81;100.00
55032;BME280;40928;51.076;7.950;2023-02-20T08:45:27;97709.41;;;4.91;100.00
55032;BME280;40928;51.076;7.950;2023-02-20T08:47:56;97705.91;;;4.91;100.00
55032;BME280;40928;51.076;7.950;2023-02-20T08:50:26;97717.19;;;5.14;100.00
55032;BME280;40928;51.076;7.950;2023-02-20T08:52:55;97704.31;;;5.26;100.00
55032;BME280;40928;51.076;7.950;2023-02-20T08:55:23;97699.56;;;5.43;100.00
55032;BME280;40928;51.076;7.950;2023-02-20T08:57:49;97712.75;;;5.58;100.00
55032;BME280;40928;51.076;7.950;2023-02-20T09:00:16;97707.84;;;5.55;100.00
55032;BME280;40928;51.076;7.950;2023-02-20T09:02:45;97699.25;;;5.75;100.00
55032;BME280;40928;51.076;7.950;2023-02-20T09:05:11;97702.81;;;5.89;100.00
55032;BME280;40928;51.076;7.950;2023-02-20T09:07:44;97709.41;;;5.71;100.00
55032;BME280;40928;51.076;7.950;2023-02-20T09:10:10;97714.06;;;5.69;100.00
55032;BME280;40928;51.076;7.950;2023-02-20T09:12:41;97717.56;;;5.70;100.00
55032;BME280;40928;51.076;7.950;2023-02-20T09:15:10;97712.44;;;5.68;100.00
55032;BME280;40928;51.076;7.950;2023-02-20T09:17:40;97711.72;;;5.81;100.00
55032;BME280;40928;51.076;7.950;2023-02-20T09:20:05;97705.09;;;5.70;100.00
55032;BME280;40928;51.076;7.950;2023-02-20T09:22:34;97701.75;;;5.61;100.00
55032;BME280;40928;51.076;7.950;2023-02-20T09:25:04;97709.22;;;5.73;100.00
55032;BME280;40928;51.076;7.950;2023-02-20T09:27:38;97707.06;;;5.61;100.00
55032;BME280;40928;51.076;7.950;2023-02-20T09:30:07;97706.38;;;5.74;100.00
55032;BME280;40928;51.076;7.950;2023-02-20T09:32:41;97698.78;;;5.93;100.00
55032;BME280;40928;51.076;7.950;2023-02-20T09:35:12;97714.47;;;6.16;100.00
55032;BME280;40928;51.076;7.950;2023-02-20T09:37:39;97712.53;;;6.03;100.00
55032;BME280;40928;51.076;7.950;2023-02-20T09:40:11;97704.78;;;5.80;100.00
55032;BME280;40928;51.076;7.950;2023-02-20T09:43:05;97709.47;;;6.00;100.00
55032;BME280;40928;51.076;7.950;2023-02-20T09:45:42;97711.50;;;6.26;100.00
55032;BME280;40928;51.076;7.950;2023-02-20T09:51:13;97697.06;;;6.35;100.00
55032;BME280;40928;51.076;7.950;2023-02-20T09:56:18;97709.34;;;6.43;100.00
55032;BME280;40928;51.076;7.950;2023-02-20T09:59:26;97701.81;;;6.47;100.00
55032;BME280;40928;51.076;7.950;2023-02-20T10:01:57;97713.09;;;6.55;100.00
55032;BME280;40928;51.076;7.950;2023-02-20T10:04:48;97718.41;;;6.62;100.00
55032;BME280;40928;51.076;7.950;2023-02-20T10:09:46;97709.50;;;7.32;100.00
55032;BME280;40928;51.076;7.950;2023-02-20T10:20:19;97714.94;;;7.04;100.00
55032;BME280;40928;51.076;7.950;2023-02-20T10:26:22;97715.88;;;6.82;100.00
55032;BME280;40928;51.076;7.950;2023-02-20T10:29:01;97701.47;;;7.05;100.00
55032;BME280;40928;51.076;7.950;2023-02-20T10:31:50;97702.94;;;6.66;100.00
55032;BME280;40928;51.076;7.950;2023-02-20T10:34:28;97705.31;;;6.54;100.00
55032;BME280;40928;51.076;7.950;2023-02-20T10:37:11;97705.53;;;6.52;100.00
55032;BME280;40928;51.076;7.950;2023-02-20T10:39:40;97706.56;;;6.23;100.00
55032;BME280;40928;51.076;7.950;2023-02-20T10:42:36;97710.81;;;6.17;100.00
55032;BME280;40928;51.076;7.950;2023-02-20T10:45:19;97708.75;;;5.91;100.00
55032;BME280;40928;51.076;7.950;2023-02-20T10:47:50;97719.72;;;5.88;100.00
55032;BME280;40928;51.076;7.950;2023-02-20T10:50:24;97710.56;;;5.62;100.00
55032;BME280;40928;51.076;7.950;2023-02-20T10:52:58;97704.63;;;5.60;100.00
55032;BME280;40928;51.076;7.950;2023-02-20T10:55:35;97696.66;;;5.60;100.00
55032;BME280;40928;51.076;7.950;2023-02-20T10:58:09;97701.59;;;5.41;100.00
55032;BME280;40928;51.076;7.950;2023-02-20T11:00:42;97699.91;;;5.55;100.00
55032;BME280;40928;51.076;7.950;2023-02-20T11:03:36;97692.69;;;5.71;100.00
55032;BME280;40928;51.076;7.950;2023-02-20T11:06:04;97690.56;;;5.59;100.00
55032;BME280;40928;51.076;7.950;2023-02-20T11:08:31;97684.94;;;5.47;100.00
55032;BME280;40928;51.076;7.950;2023-02-20T11:11:01;97689.94;;;5.57;100.00
55032;BME280;40928;51.076;7.950;2023-02-20T11:13:43;97687.44;;;5.56;100.00
55032;BME280;40928;51.076;7.950;2023-02-20T11:16:20;97665.28;;;5.35;100.00
55032;BME280;40928;51.076;7.950;2023-02-20T11:18:47;97663.97;;;5.74;100.00
55032;BME280;40928;51.076;7.950;2023-02-20T11:21:42;97657.91;;;5.81;100.00
55032;BME280;40928;51.076;7.950;2023-02-20T11:24:33;97651.94;;;5.72;100.00
55032;BME280;40928;51.076;7.950;2023-02-20T11:27:14;97660.22;;;5.90;100.00
55032;BME280;40928;51.076;7.950;2023-02-20T11:29:55;97661.88;;;5.91;100.00
55032;BME280;40928;51.076;7.950;2023-02-20T11:37:45;97656.16;;;5.94;100.00
55032;BME280;40928;51.076;7.950;2023-02-20T11:40:26;97660.22;;;5.90;100.00
55032;BME280;40928;51.076;7.950;2023-02-20T11:42:52;97658.34;;;5.84;100.00
55032;BME280;40928;51.076;7.950;2023-02-20T11:45:28;97670.53;;;5.78;100.00
55032;BME280;40928;51.076;7.950;2023-02-20T11:50:57;97665.06;;;5.58;100.00
55032;BME280;40928;51.076;7.950;2023-02-20T11:53:30;97650.78;;;5.53;100.00
55032;BME280;40928;51.076;7.950;2023-02-20T11:58:35;97658.88;;;5.51;100.00
55032;BME280;40928;51.076;7.950;2023-02-20T12:01:04;97653.22;;;5.54;100.00
55032;BME280;40928;51.076;7.950;2023-02-20T12:03:31;97642.88;;;5.59;100.00
55032;BME280;40928;51.076;7.950;2023-02-20T12:06:45;97631.75;;;5.71;100.00
55032;BME280;40928;51.076;7.950;2023-02-20T12:08:53;97612.94;;;5.66;100.00
55032;BME280;40928;51.076;7.950;2023-02-20T12:11:23;97615.38;;;5.60;100.00
55032;BME280;40928;51.076;7.950;2023-02-20T12:13:51;97605.78;;;5.59;100.00
55032;BME280;40928;51.076;7.950;2023-02-20T12:21:57;97583.41;;;5.69;100.00
55032;BME280;40928;51.076;7.950;2023-02-20T12:39:22;97551.03;;;6.57;100.00
55032;BME280;40928;51.076;7.950;2023-02-20T12:42:09;97548.16;;;6.59;100.00
55032;BME280;40928;51.076;7.950;2023-02-20T12:47:40;97536.81;;;7.12;100.00
55032;BME280;40928;51.076;7.950;2023-02-20T12:50:42;97548.06;;;7.07;100.00
55032;BME280;40928;51.076;7.950;2023-02-20T12:53:16;97557.66;;;6.95;100.00
55032;BME280;40928;51.076;7.950;2023-02-20T12:58:37;97569.03;;;6.75;100.00
55032;BME280;40928;51.076;7.950;2023-02-20T13:01:10;97559.03;;;6.77;100.00
55032;BME280;40928;51.076;7.950;2023-02-20T13:03:59;97547.56;;;6.63;100.00
55032;BME280;40928;51.076;7.950;2023-02-20T13:09:27;97566.75;;;6.59;100.00
55032;BME280;40928;51.076;7.950;2023-02-20T13:12:01;97565.94;;;6.51;100.00
55032;BME280;40928;51.076;7.950;2023-02-20T13:17:20;97592.47;;;6.51;100.00
55032;BME280;40928;51.076;7.950;2023-02-20T13:19:57;97585.31;;;6.52;100.00
55032;BME280;40928;51.076;7.950;2023-02-20T13:22:25;97581.41;;;6.48;100.00
55032;BME280;40928;51.076;7.950;2023-02-20T13:24:50;97579.59;;;6.48;100.00
55032;BME280;40928;51.076;7.950;2023-02-20T13:27:42;97596.31;;;6.49;100.00
55032;BME280;40928;51.076;7.950;2023-02-20T13:30:26;97595.88;;;6.45;100.00
55032;BME280;40928;51.076;7.950;2023-02-20T13:33:12;97582.22;;;6.42;100.00
55032;BME280;40928;51.076;7.950;2023-02-20T13:38:15;97572.97;;;6.31;100.00
55032;BME280;40928;51.076;7.950;2023-02-20T13:40:43;97564.41;;;6.29;100.00
55032;BME280;40928;51.076;7.950;2023-02-20T13:43:23;97553.59;;;6.30;100.00
55032;BME280;40928;51.076;7.950;2023-02-20T13:46:11;97551.75;;;6.31;100.00
55032;BME280;40928;51.076;7.950;2023-02-20T13:48:45;97552.34;;;6.26;100.00
55032;BME280;40928;51.076;7.950;2023-02-20T13:53:58;97534.16;;;6.16;100.00
55032;BME280;40928;51.076;7.950;2023-02-20T13:56:42;97523.34;;;6.18;100.00
55032;BME280;40928;51.076;7.950;2023-02-20T13:59:13;97527.22;;;6.15;100.00
55032;BME280;40928;51.076;7.950;2023-02-20T14:04:30;97530.06;;;6.07;100.00
55032;BME280;40928;51.076;7.950;2023-02-20T14:06:56;97518.00;;;6.04;100.00
55032;BME280;40928;51.076;7.950;2023-02-20T14:09:25;97511.00;;;5.97;100.00
55032;BME280;40928;51.076;7.950;2023-02-20T14:12:03;97506.69;;;5.95;100.00
55032;BME280;40928;51.076;7.950;2023-02-20T14:14:37;97482.84;;;5.95;100.00
55032;BME280;40928;51.076;7.950;2023-02-20T14:17:17;97477.16;;;5.99;100.00
55032;BME280;40928;51.076;7.950;2023-02-20T14:19:46;97469.25;;;6.05;100.00
55032;BME280;40928;51.076;7.950;2023-02-20T14:22:28;97479.47;;;6.08;100.00
55032;BME280;40928;51.076;7.950;2023-02-20T14:25:20;97480.09;;;6.11;100.00
55032;BME280;40928;51.076;7.950;2023-02-20T14:27:47;97468.66;;;6.10;100.00
55032;BME280;40928;51.076;7.950;2023-02-20T14:30:22;97461.94;;;6.14;100.00
55032;BME280;40928;51.076;7.950;2023-02-20T14:32:52;97463.31;;;6.03;100.00
55032;BME280;40928;51.076;7.950;2023-02-20T14:35:41;97456.00;;;6.05;100.00
55032;BME280;40928;51.076;7.950;2023-02-20T14:38:15;97459.06;;;6.09;100.00
55032;BME280;40928;51.076;7.950;2023-02-20T14:40:43;97462.72;;;6.08;100.00
55032;BME280;40928;51.076;7.950;2023-02-20T14:43:17;97467.00;;;6.02;100.00
55032;BME280;40928;51.076;7.950;2023-02-20T14:45:45;97465.19;;;6.03;100.00
55032;BME280;40928;51.076;7.950;2023-02-20T14:48:23;97476.41;;;6.05;100.00
55032;BME280;40928;51.076;7.950;2023-02-20T14:51:08;97481.72;;;6.12;100.00
55032;BME280;40928;51.076;7.950;2023-02-20T14:53:36;97489.47;;;6.13;100.00